Terminal Aerodrome Forecast
Issued by NWS Shreveport, LA

Home | Current Version | Previous Version | Text Only | Print | Product List | Glossary On
Versions: 1 2 3 4 5 6 7 8 9 10 11 12 13 14 15 16 17 18 19 20
000
FTUS44 KSHV 232341
TAFLFK
TAF
KLFK 232341Z 2400/2424 17007KT P6SM VCSH BKN035 BKN250
     FM240200 15004KT P6SM FEW250
     FM240800 16003KT 3SM BR BKN007
     FM241100 17003KT 1 1/2SM BR OVC003
     FM241400 18004KT 6SM BR BKN008
     FM241600 19006KT P6SM BKN020
     FM241800 21008KT P6SM OVC050
     FM242100 18006KT P6SM SCT250=

USA.gov is the U.S. government's official web portal to all federal, state and local government web resources and services.